createdAt,value
2023-01-06T00:00:57.031Z,19.40
2023-01-06T00:03:33.538Z,19.40
2023-01-06T00:06:10.750Z,19.50
2023-01-06T00:08:48.645Z,19.60
2023-01-06T00:11:24.946Z,19.70
2023-01-06T00:14:01.543Z,19.70
2023-01-06T00:16:37.255Z,19.80
2023-01-06T00:19:15.683Z,19.80
2023-01-06T00:21:51.138Z,19.90
2023-01-06T00:24:29.118Z,19.90
2023-01-06T00:27:05.712Z,20.00
2023-01-06T00:29:41.732Z,20.00
2023-01-06T00:32:17.447Z,20.10
2023-01-06T00:34:53.370Z,20.10
2023-01-06T00:37:28.847Z,20.20
2023-01-06T00:40:06.746Z,20.30
2023-01-06T00:42:42.870Z,20.30
2023-01-06T00:45:19.467Z,20.30
2023-01-06T00:47:55.188Z,20.30
2023-01-06T00:50:31.287Z,20.40
2023-01-06T00:53:07.085Z,20.50
2023-01-06T00:55:46.366Z,20.60
2023-01-06T00:58:22.535Z,20.80
2023-01-06T01:00:58.853Z,21.00
2023-01-06T01:03:35.744Z,21.00
2023-01-06T01:06:13.266Z,21.00
2023-01-06T01:08:48.965Z,20.90
2023-01-06T01:11:44.746Z,20.80
2023-01-06T01:14:24.913Z,20.80
2023-01-06T01:17:00.779Z,20.70
2023-01-06T01:19:37.816Z,20.70
2023-01-06T01:22:14.693Z,20.70
2023-01-06T01:24:51.849Z,20.70
2023-01-06T01:27:29.895Z,20.70
2023-01-06T01:30:06.143Z,20.70
2023-01-06T01:32:42.296Z,20.60
2023-01-06T01:35:17.964Z,20.60
2023-01-06T01:37:53.847Z,20.50
2023-01-06T01:40:29.455Z,20.40
2023-01-06T01:43:07.443Z,20.40
2023-01-06T01:45:46.915Z,20.40
2023-01-06T01:48:30.799Z,20.30
2023-01-06T01:51:10.237Z,20.30
2023-01-06T01:53:49.193Z,20.40
2023-01-06T01:56:28.025Z,20.40
2023-01-06T01:59:08.905Z,20.30
2023-01-06T02:01:45.275Z,20.20
2023-01-06T02:04:23.088Z,20.10
2023-01-06T02:07:00.396Z,20.20
2023-01-06T02:09:42.723Z,20.30
2023-01-06T02:12:18.481Z,20.40
2023-01-06T02:14:56.638Z,20.50
2023-01-06T02:17:57.530Z,20.50
2023-01-06T02:45:39.061Z,20.30
2023-01-06T02:48:25.065Z,20.30
2023-01-06T02:51:06.440Z,20.20
2023-01-06T02:53:52.202Z,20.20
2023-01-06T02:56:31.806Z,20.10
2023-01-06T02:59:13.127Z,20.40
2023-01-06T03:01:52.241Z,20.40
2023-01-06T03:04:35.571Z,20.30
2023-01-06T03:28:04.419Z,19.70
2023-01-06T03:30:50.437Z,19.70
2023-01-06T03:33:31.206Z,19.70
2023-01-06T03:36:21.574Z,19.70
2023-01-06T03:39:06.603Z,19.60
2023-01-06T03:42:02.234Z,19.40
2023-01-06T03:44:47.681Z,19.30
2023-01-06T03:47:30.941Z,19.30
2023-01-06T03:50:14.290Z,19.30
2023-01-06T03:52:56.935Z,19.40
2023-01-06T03:55:37.254Z,19.50
2023-01-06T03:58:14.734Z,19.60
2023-01-06T04:00:50.460Z,19.60
2023-01-06T04:03:30.636Z,19.60
2023-01-06T04:06:06.872Z,19.70
2023-01-06T04:08:44.597Z,19.80
2023-01-06T04:11:33.313Z,19.90
2023-01-06T04:14:10.325Z,19.90
2023-01-06T04:37:36.437Z,20.30
2023-01-06T04:51:05.996Z,20.20
2023-01-06T04:53:42.695Z,20.10
2023-01-06T04:56:20.741Z,20.00
2023-01-06T04:58:59.347Z,19.80
2023-01-06T05:01:35.877Z,19.90
2023-01-06T05:04:12.344Z,20.00
2023-01-06T05:06:48.454Z,20.10
2023-01-06T05:17:14.216Z,20.40
2023-01-06T05:19:49.950Z,20.50
2023-01-06T05:22:25.754Z,20.50
2023-01-06T05:25:01.364Z,20.40
2023-01-06T05:27:39.508Z,20.40
2023-01-06T05:30:15.652Z,20.20
2023-01-06T08:16:32.473Z,19.40
2023-01-06T08:19:09.847Z,19.40
2023-01-06T08:21:45.537Z,19.40
2023-01-06T08:24:22.645Z,19.40
2023-01-06T08:26:58.452Z,19.40
2023-01-06T09:03:21.688Z,19.40
2023-01-06T09:06:03.700Z,19.30
2023-01-06T09:08:39.508Z,19.30
2023-01-06T09:11:16.611Z,19.30
2023-01-06T09:13:52.590Z,19.30
2023-01-06T09:16:28.916Z,19.30
2023-01-06T09:19:04.290Z,19.30
2023-01-06T09:21:45.130Z,19.30
2023-01-06T09:24:21.244Z,19.30
2023-01-06T09:26:58.404Z,19.30
2023-01-06T09:29:33.946Z,19.30
2023-01-06T09:32:09.868Z,19.40
2023-01-06T09:34:45.834Z,19.20
2023-01-06T09:37:24.400Z,19.20
2023-01-06T09:40:00.206Z,19.20
2023-01-06T09:42:48.672Z,19.20
2023-01-06T09:45:29.607Z,19.20
2023-01-06T09:48:08.961Z,19.10
2023-01-06T09:50:48.198Z,19.00
2023-01-06T09:53:30.563Z,19.00
2023-01-06T09:56:08.431Z,19.00
2023-01-06T09:58:50.674Z,19.00
2023-01-06T10:01:33.747Z,19.10
2023-01-06T10:04:12.107Z,19.10
2023-01-06T10:06:50.713Z,19.20
2023-01-06T10:09:39.225Z,19.30
2023-01-06T10:12:29.440Z,19.30
2023-01-06T10:15:17.095Z,19.30
2023-01-06T10:18:13.195Z,19.40
2023-01-06T10:21:08.422Z,19.40
2023-01-06T10:24:03.966Z,19.40
2023-01-06T10:26:47.725Z,19.40
2023-01-06T10:29:24.358Z,19.40
2023-01-06T10:32:03.167Z,19.50
2023-01-06T10:34:39.603Z,19.50
2023-01-06T10:37:23.741Z,19.50
2023-01-06T10:40:07.293Z,19.50
2023-01-06T10:43:05.194Z,19.50
2023-01-06T10:45:44.778Z,19.60
2023-01-06T10:48:23.120Z,19.60
2023-01-06T10:51:01.710Z,19.60
2023-01-06T10:56:14.522Z,19.60
2023-01-06T10:58:57.481Z,19.70
2023-01-06T11:01:34.892Z,19.60
2023-01-06T11:04:13.641Z,19.60
2023-01-06T11:06:53.350Z,19.50
2023-01-06T11:09:33.380Z,19.60
2023-01-06T11:12:16.507Z,19.60
2023-01-06T11:15:03.189Z,19.60
2023-01-06T11:20:32.220Z,19.60
2023-01-06T11:23:26.426Z,19.70
2023-01-06T11:26:20.918Z,19.70
2023-01-06T11:28:59.960Z,19.60
2023-01-06T11:34:27.579Z,19.50
2023-01-06T11:37:05.070Z,19.70
2023-01-06T11:42:20.809Z,19.70
2023-01-06T11:44:57.181Z,19.70
2023-01-06T11:47:36.244Z,19.80
2023-01-06T11:50:22.844Z,19.80
2023-01-06T11:53:05.338Z,19.70
2023-01-06T11:55:41.283Z,19.70
2023-01-06T11:58:23.147Z,19.80
2023-01-06T12:01:05.674Z,19.80
2023-01-06T12:03:46.837Z,19.70
2023-01-06T12:06:32.656Z,19.70
2023-01-06T12:09:14.021Z,19.70
2023-01-06T12:11:53.459Z,19.70
2023-01-06T12:14:30.433Z,19.80
2023-01-06T12:17:12.460Z,19.80
2023-01-06T12:19:53.668Z,19.70
2023-01-06T12:22:39.319Z,19.70
2023-01-06T12:25:20.955Z,19.70
2023-01-06T12:28:01.527Z,19.50
2023-01-06T12:30:42.069Z,19.60
2023-01-06T12:33:22.978Z,19.60
2023-01-06T12:36:05.139Z,19.60
2023-01-06T12:38:54.545Z,19.60
2023-01-06T12:41:37.832Z,19.80
2023-01-06T12:44:22.572Z,19.60
2023-01-06T12:47:07.151Z,19.60
2023-01-06T12:49:52.738Z,19.70
2023-01-06T12:52:36.582Z,19.60
2023-01-06T12:55:16.657Z,19.60
2023-01-06T12:58:01.444Z,19.60
2023-01-06T13:00:54.065Z,19.50
2023-01-06T13:04:04.359Z,19.60
2023-01-06T13:06:56.998Z,19.60
2023-01-06T13:09:55.889Z,19.50
2023-01-06T13:12:47.111Z,19.60
2023-01-06T13:15:28.758Z,19.60
2023-01-06T13:18:15.727Z,19.60
2023-01-06T13:20:54.870Z,19.60
2023-01-06T13:23:53.465Z,19.60
2023-01-06T13:27:02.980Z,19.60
2023-01-06T13:29:51.712Z,19.60
2023-01-06T13:32:44.684Z,19.60
2023-01-06T13:35:33.751Z,19.60
2023-01-06T13:38:27.480Z,19.60
2023-01-06T13:41:05.812Z,19.60
2023-01-06T13:43:41.767Z,19.60
2023-01-06T13:46:24.355Z,19.60
2023-01-06T13:49:04.735Z,19.50
2023-01-06T13:51:42.503Z,19.60
2023-01-06T13:54:49.524Z,19.60
2023-01-06T13:57:35.916Z,19.70
2023-01-06T14:00:29.151Z,19.60
2023-01-06T14:03:30.200Z,19.60
2023-01-06T14:06:07.373Z,19.70
2023-01-06T14:08:51.509Z,19.70
2023-01-06T14:11:34.285Z,19.70
2023-01-06T14:14:11.829Z,19.70
2023-01-06T14:16:49.838Z,19.70
2023-01-06T14:19:30.905Z,19.70
2023-01-06T14:22:21.153Z,19.70
2023-01-06T14:25:00.231Z,19.70
2023-01-06T14:28:12.819Z,19.70
2023-01-06T14:30:49.029Z,19.70
2023-01-06T14:33:40.572Z,19.70
2023-01-06T14:36:20.336Z,19.80
2023-01-06T14:41:37.270Z,19.60
2023-01-06T14:44:19.572Z,19.90
2023-01-06T14:46:58.511Z,19.80
2023-01-06T14:49:42.967Z,19.80
2023-01-06T14:52:26.993Z,19.80
2023-01-06T14:55:03.464Z,19.80
2023-01-06T16:08:49.155Z,19.30
2023-01-06T16:11:51.592Z,19.10
2023-01-06T16:14:33.755Z,19.10
2023-01-06T16:17:13.383Z,19.00
2023-01-06T16:19:53.635Z,19.10
2023-01-06T16:22:41.155Z,19.00
2023-01-06T16:25:29.731Z,19.00
2023-01-06T16:28:09.363Z,19.00
2023-01-06T16:30:45.372Z,19.00
2023-01-06T16:33:41.959Z,19.00
2023-01-06T16:36:20.327Z,18.90
2023-01-06T16:38:56.488Z,18.90
2023-01-06T16:41:32.702Z,18.90
2023-01-06T16:44:10.962Z,18.90
2023-01-06T16:46:46.841Z,18.90
2023-01-06T16:49:22.836Z,18.80
2023-01-06T16:51:59.673Z,18.80
2023-01-06T16:54:35.378Z,18.80
2023-01-06T16:57:16.016Z,18.80
2023-01-06T16:59:54.794Z,18.80
2023-01-06T17:02:30.929Z,18.80
2023-01-06T17:05:07.569Z,18.90
2023-01-06T17:07:43.559Z,18.90
2023-01-06T17:10:23.100Z,18.90
2023-01-06T17:13:24.460Z,18.90
2023-01-06T17:16:06.688Z,18.90
2023-01-06T17:18:48.628Z,18.90
2023-01-06T17:21:26.444Z,19.00
2023-01-06T17:24:06.981Z,19.00
2023-01-06T17:26:42.909Z,19.00
2023-01-06T17:29:20.537Z,19.00
2023-01-06T17:32:01.839Z,19.00
2023-01-06T17:34:41.088Z,19.20
2023-01-06T17:37:19.866Z,19.20
2023-01-06T17:39:55.898Z,19.20
2023-01-06T17:42:34.693Z,19.20
2023-01-06T17:45:23.029Z,19.20
2023-01-06T17:48:01.953Z,19.20
2023-01-06T17:50:39.316Z,19.30
2023-01-06T17:53:35.534Z,19.30
2023-01-06T17:56:13.303Z,19.30
2023-01-06T17:58:50.120Z,19.30
2023-01-06T18:01:29.314Z,19.20
2023-01-06T18:04:11.117Z,19.30
2023-01-06T18:06:54.429Z,19.30
2023-01-06T18:09:30.093Z,19.30
2023-01-06T18:12:12.196Z,19.30
2023-01-06T18:14:48.410Z,19.40
2023-01-06T18:17:29.003Z,19.30
2023-01-06T18:20:11.697Z,19.30
2023-01-06T18:22:47.664Z,19.30
2023-01-06T18:25:29.125Z,19.20
2023-01-06T18:28:05.609Z,19.30
2023-01-06T18:30:41.586Z,19.30
2023-01-06T18:33:21.598Z,19.20
2023-01-06T18:36:01.239Z,19.20
2023-01-06T18:38:37.588Z,19.10
2023-01-06T18:41:16.355Z,19.00
2023-01-06T18:43:52.424Z,18.90
2023-01-06T18:46:28.606Z,18.80
2023-01-06T18:49:04.688Z,18.80
2023-01-06T18:51:42.923Z,18.70
2023-01-06T18:54:22.589Z,18.60
2023-01-06T18:56:58.314Z,18.60
2023-01-06T18:59:34.406Z,18.50
2023-01-06T19:02:34.724Z,18.50
2023-01-06T19:05:16.395Z,18.40
2023-01-06T19:07:56.477Z,18.50
2023-01-06T19:10:33.354Z,18.40
2023-01-06T19:13:14.427Z,18.40
2023-01-06T19:15:50.371Z,18.50
2023-01-06T19:18:27.233Z,18.50
2023-01-06T19:21:03.539Z,18.50
2023-01-06T19:23:42.146Z,18.50
2023-01-06T19:26:26.439Z,18.60
2023-01-06T19:29:07.436Z,18.60
2023-01-06T19:31:47.624Z,18.60
2023-01-06T19:34:23.378Z,18.60
2023-01-06T19:37:00.792Z,18.70
2023-01-06T19:39:41.222Z,18.60
2023-01-06T19:42:28.696Z,18.70
2023-01-06T19:45:07.163Z,18.70
2023-01-06T19:47:46.527Z,18.80
2023-01-06T19:50:27.268Z,18.80
2023-01-06T19:53:04.635Z,18.90
2023-01-06T19:55:44.202Z,18.90
2023-01-06T19:58:24.786Z,19.00
2023-01-06T20:01:01.126Z,19.00
2023-01-06T20:03:40.443Z,19.10
2023-01-06T20:32:30.297Z,19.50
2023-01-06T20:35:05.973Z,19.50
2023-01-06T20:37:42.245Z,19.50
2023-01-06T20:40:20.219Z,19.50
2023-01-06T20:42:58.327Z,19.50
2023-01-06T20:45:34.243Z,19.50
2023-01-06T20:48:10.093Z,19.50
2023-01-06T20:50:45.879Z,19.50
2023-01-06T20:58:40.034Z,19.10
2023-01-06T21:01:15.856Z,19.30
2023-01-06T21:03:52.179Z,19.20
2023-01-06T21:06:28.214Z,19.10
2023-01-06T21:09:03.876Z,19.10
2023-01-06T21:11:39.893Z,19.10
2023-01-06T21:14:18.040Z,19.10
2023-01-06T21:16:54.021Z,19.10
2023-01-06T21:19:29.507Z,19.10
2023-01-06T21:22:05.352Z,19.10
2023-01-06T21:24:40.911Z,19.10
2023-01-06T21:27:16.913Z,19.00
2023-01-06T21:29:55.072Z,19.10
2023-01-06T21:32:31.032Z,19.00
2023-01-06T21:35:06.695Z,19.00
2023-01-06T21:37:42.647Z,18.90
2023-01-06T21:40:18.647Z,19.00
2023-01-06T21:43:11.213Z,19.00
2023-01-06T21:45:50.514Z,19.00
2023-01-06T21:48:27.492Z,18.90
2023-01-06T21:51:03.268Z,19.00
2023-01-06T21:53:39.292Z,19.00
2023-01-06T21:56:15.271Z,19.20
2023-01-06T21:58:51.553Z,19.20
2023-01-06T22:01:30.092Z,19.20
2023-01-06T22:32:54.099Z,20.10
2023-01-06T22:35:29.680Z,20.10
2023-01-06T22:38:05.266Z,20.10
2023-01-06T22:40:41.217Z,20.10
2023-01-06T22:43:17.011Z,20.10
2023-01-06T22:46:01.198Z,20.00
2023-01-06T22:48:40.355Z,20.10
2023-01-06T22:51:16.465Z,19.90
2023-01-06T22:53:52.064Z,19.90
2023-01-06T22:56:27.956Z,19.90
2023-01-06T22:59:03.584Z,19.90
2023-01-06T23:01:39.597Z,19.90
2023-01-06T23:04:18.306Z,19.90
2023-01-06T23:06:54.284Z,19.80
2023-01-06T23:09:29.810Z,19.90
2023-01-06T23:12:08.164Z,19.90
2023-01-06T23:14:43.772Z,19.90
2023-01-06T23:17:19.578Z,19.90
2023-01-06T23:19:57.715Z,20.00
2023-01-06T23:22:33.749Z,20.10
2023-01-06T23:25:09.672Z,20.10
2023-01-06T23:27:45.485Z,20.10
2023-01-06T23:30:21.218Z,20.10
2023-01-06T23:32:57.219Z,20.10
2023-01-06T23:35:58.901Z,20.10
2023-01-06T23:38:34.767Z,20.10
2023-01-06T23:41:11.148Z,20.10
2023-01-06T23:43:47.345Z,20.10
2023-01-06T23:46:24.468Z,20.00
2023-01-06T23:49:01.259Z,20.10
2023-01-06T23:51:39.931Z,20.10
2023-01-06T23:54:17.962Z,20.20
2023-01-06T23:56:53.790Z,20.20
2023-01-06T23:59:29.711Z,20.20
